Time;durP1;ratioP1;P1;durP2;ratioP2;P2;SDS_P1;SDS_P2;PMS_P1;PMS_P2;Temp;Humidity;BMP_temperature;BMP_pressure;BME280_temperature;BME280_humidity;BME280_pressure;Samples;Min_cycle;Max_cycle;Signal;HPM_P1;HPM_P2
2022/07/14 00:02:25;;;;;;;3.35;1.95;;;;;;;22.84;48.98;101249.88;5044480;28;20390;-45
2022/07/14 00:04:51;;;;;;;5.82;2.03;;;;;;;22.83;48.86;101247.44;5033507;28;20025;-41
2022/07/14 00:07:17;;;;;;;3.33;2.33;;;;;;;22.92;49.12;101245.78;5031758;28;20136;-42
2022/07/14 00:09:44;;;;;;;8.55;2.08;;;;;;;22.65;49.01;101232.47;5034392;28;20029;-41
2022/07/14 00:12:10;;;;;;;2.67;1.73;;;;;;;22.69;49.04;101230.81;5035569;28;20036;-44
2022/07/14 00:14:36;;;;;;;3.58;1.90;;;;;;;22.82;49.23;101232.13;5040328;28;20036;-42
2022/07/14 00:17:02;;;;;;;3.03;2.05;;;;;;;22.89;49.00;101230.78;5029832;28;20381;-44
2022/07/14 00:19:28;;;;;;;5.65;2.40;;;;;;;22.87;48.75;101216.59;5031730;28;20124;-42
2022/07/14 00:21:54;;;;;;;4.35;2.25;;;;;;;22.79;49.17;101222.59;5031527;28;20107;-43
2022/07/14 00:24:21;;;;;;;4.03;2.38;;;;;;;22.63;49.89;101226.47;5033592;28;20022;-43
2022/07/14 00:26:47;;;;;;;5.63;2.03;;;;;;;22.53;49.67;101227.31;5013114;28;20454;-43
2022/07/14 00:29:13;;;;;;;2.47;1.73;;;;;;;22.31;49.93;101219.44;5033022;28;20033;-44
2022/07/14 00:31:39;;;;;;;5.85;2.50;;;;;;;22.34;50.38;101224.34;5013805;28;20037;-44
2022/07/14 00:34:05;;;;;;;4.68;2.40;;;;;;;22.26;50.77;101215.91;5046371;28;20036;-41
2022/07/14 00:36:32;;;;;;;3.75;1.95;;;;;;;22.10;50.94;101217.84;5044447;28;20079;-42
2022/07/14 00:38:58;;;;;;;3.55;2.10;;;;;;;22.17;50.70;101225.75;5031971;28;20032;-42
2022/07/14 00:41:24;;;;;;;2.55;1.85;;;;;;;21.80;50.74;101224.88;5027159;28;20021;-46
2022/07/14 00:43:51;;;;;;;4.50;2.22;;;;;;;21.74;51.52;101214.25;5042061;28;20029;-47
2022/07/14 00:46:17;;;;;;;4.50;2.50;;;;;;;21.57;51.44;101217.25;5047396;28;20025;-45
2022/07/14 00:48:43;;;;;;;4.53;2.47;;;;;;;21.59;51.84;101220.50;5015542;28;20022;-48
2022/07/14 00:51:09;;;;;;;3.55;2.40;;;;;;;21.85;51.95;101216.72;5012791;28;20121;-47
2022/07/14 00:53:35;;;;;;;5.75;2.65;;;;;;;21.61;51.54;101208.25;5016420;28;20033;-47
2022/07/14 00:56:02;;;;;;;4.63;2.22;;;;;;;21.82;51.30;101210.97;5032218;28;20127;-45
2022/07/14 00:58:28;;;;;;;4.47;2.28;;;;;;;21.85;50.91;101200.38;5031003;28;20065;-49
2022/07/14 01:00:54;;;;;;;6.97;2.25;;;;;;;21.80;51.98;101197.63;5026352;28;20028;-44
2022/07/14 01:03:21;;;;;;;3.33;2.28;;;;;;;21.61;52.06;101197.38;5029677;28;20096;-44
2022/07/14 01:05:47;;;;;;;4.57;2.63;;;;;;;21.56;52.54;101207.44;5030447;28;20393;-45
2022/07/14 01:08:13;;;;;;;5.40;2.53;;;;;;;21.64;52.34;101201.44;5028567;28;20031;-42
2022/07/14 01:10:39;;;;;;;5.55;2.80;;;;;;;21.32;52.89;101197.06;5030242;28;20466;-41
2022/07/14 01:13:06;;;;;;;5.30;2.50;;;;;;;21.34;52.89;101188.63;5030852;28;20040;-41
2022/07/14 01:15:33;;;;;;;8.82;3.63;;;;;;;21.39;54.00;101190.53;5036160;28;20041;-43
2022/07/14 01:18:00;;;;;;;4.63;2.97;;;;;;;21.32;53.92;101177.16;5031042;28;20033;-41
2022/07/14 01:20:26;;;;;;;10.70;3.25;;;;;;;21.39;53.86;101175.00;5012228;28;20073;-41
2022/07/14 01:22:53;;;;;;;6.35;2.83;;;;;;;21.35;53.28;101176.63;5012023;28;20109;-41
2022/07/14 01:25:20;;;;;;;6.13;2.83;;;;;;;21.26;53.21;101175.47;5026480;28;20163;-41
2022/07/14 01:27:46;;;;;;;4.15;2.95;;;;;;;21.08;54.02;101179.53;5051892;28;20037;-43
2022/07/14 01:30:13;;;;;;;8.15;3.25;;;;;;;21.09;54.26;101181.16;5049011;28;20036;-41
2022/07/14 01:32:39;;;;;;;6.22;2.80;;;;;;;21.00;55.36;101178.16;5031474;28;20084;-42
2022/07/14 01:35:07;;;;;;;9.98;3.47;;;;;;;20.88;55.14;101180.28;5033388;28;20474;-41
2022/07/14 01:37:33;;;;;;;7.00;3.40;;;;;;;20.90;54.81;101177.28;5014799;28;20076;-41
2022/07/14 01:40:00;;;;;;;10.60;3.20;;;;;;;20.62;56.35;101181.25;5012101;28;20463;-41
2022/07/14 01:42:27;;;;;;;6.93;2.83;;;;;;;20.61;56.08;101185.88;5011719;28;20029;-41
2022/07/14 01:44:53;;;;;;;11.98;3.13;;;;;;;20.65;56.45;101186.16;5028172;28;20045;-41
2022/07/14 01:47:19;;;;;;;8.85;3.15;;;;;;;20.76;56.28;101185.13;5034749;28;20421;-42
2022/07/14 01:49:46;;;;;;;10.48;3.15;;;;;;;20.75;56.42;101181.56;5033671;28;20034;-42
2022/07/14 01:52:13;;;;;;;10.65;3.47;;;;;;;20.76;56.11;101182.38;5035874;28;20037;-44
2022/07/14 01:54:39;;;;;;;5.80;3.00;;;;;;;20.69;55.91;101185.38;5035926;28;20026;-41
2022/07/14 01:57:06;;;;;;;6.97;3.15;;;;;;;20.78;56.48;101180.25;5035759;28;20064;-42
2022/07/14 01:59:32;;;;;;;10.07;3.40;;;;;;;20.79;56.30;101182.69;5035979;28;20029;-41
2022/07/14 02:01:59;;;;;;;7.82;3.13;;;;;;;20.90;56.15;101180.00;5035535;28;20033;-43
2022/07/14 02:04:25;;;;;;;6.82;3.40;;;;;;;20.97;56.01;101169.69;5035904;28;20040;-42
2022/07/14 02:06:54;;;;;;;12.52;3.63;;;;;;;20.85;56.65;101180.81;5037887;28;20037;-41
2022/07/14 02:09:22;;;;;;;10.90;3.92;;;;;;;21.20;55.51;101176.56;5018625;28;20057;-41
2022/07/14 02:14:34;;;;;;;9.60;3.50;;;;;;;21.21;55.20;101172.75;5036273;28;20048;-43
2022/07/14 02:17:00;;;;;;;8.32;3.28;;;;;;;21.23;54.98;101165.97;5039514;28;20192;-43
2022/07/14 02:19:27;;;;;;;11.57;3.53;;;;;;;21.52;54.17;101168.22;5051695;28;20095;-41
2022/07/14 02:21:54;;;;;;;7.78;4.47;;;;;;;21.44;54.47;101166.84;5016404;28;20488;-42
2022/07/14 02:24:22;;;;;;;6.95;3.10;;;;;;;21.72;53.09;101159.25;5035120;28;20096;-41
2022/07/14 02:26:52;;;;;;;8.98;3.17;;;;;;;21.75;53.12;101164.94;5014954;28;20030;-42
2022/07/14 02:29:20;;;;;;;6.68;3.00;;;;;;;21.59;53.43;101171.47;5054978;28;20024;-43
2022/07/14 02:31:46;;;;;;;8.25;2.90;;;;;;;21.43;53.48;101175.25;5033720;28;20032;-44
2022/07/14 02:34:16;;;;;;;10.80;3.30;;;;;;;21.16;54.20;101165.41;5033220;28;20056;-47
2022/07/14 02:36:43;;;;;;;8.25;3.10;;;;;;;21.18;53.86;101179.56;5033264;28;20191;-43
2022/07/14 02:39:09;;;;;;;4.93;2.70;;;;;;;20.96;54.76;101187.09;5031908;28;20071;-44
2022/07/14 02:41:35;;;;;;;4.57;2.50;;;;;;;20.77;55.30;101190.31;5033821;28;20048;-45
2022/07/14 02:44:01;;;;;;;4.80;2.45;;;;;;;20.41;56.07;101183.81;5034389;28;20057;-43
2022/07/14 02:46:29;;;;;;;5.68;2.70;;;;;;;20.61;55.42;101183.16;5034927;28;20029;-42
2022/07/14 02:48:55;;;;;;;4.28;2.63;;;;;;;20.62;55.26;101184.78;5041778;28;20549;-43
2022/07/14 02:51:21;;;;;;;5.88;2.60;;;;;;;20.18;56.74;101181.50;5035184;28;20061;-44
2022/07/14 02:53:47;;;;;;;4.05;2.60;;;;;;;19.81;57.45;101182.31;5034421;28;20025;-42
2022/07/14 02:56:13;;;;;;;3.83;2.47;;;;;;;19.38;58.90;101191.41;5034282;28;20104;-43
2022/07/14 02:58:40;;;;;;;4.28;2.38;;;;;;;19.25;59.54;101189.91;5038661;28;20035;-41
2022/07/14 03:01:08;;;;;;;4.95;3.28;;;;;;;19.17;59.63;101185.75;5044446;28;20026;-43
2022/07/14 03:03:36;;;;;;;4.80;2.67;;;;;;;18.67;61.02;101194.91;5014588;28;20044;-45
2022/07/14 03:06:16;;;;;;;6.43;2.90;;;;;;;18.60;61.77;101196.97;5030665;28;20076;-43
2022/07/14 03:08:43;;;;;;;3.92;3.05;;;;;;;18.43;62.58;101191.59;5052808;28;20029;-42
2022/07/14 03:11:09;;;;;;;5.15;3.28;;;;;;;18.17;63.44;101184.97;5041322;28;20036;-43
2022/07/14 03:13:36;;;;;;;9.68;2.95;;;;;;;17.86;64.51;101178.25;5033097;28;20026;-41
2022/07/14 03:16:04;;;;;;;4.13;2.92;;;;;;;17.57;65.58;101180.16;5032229;28;20413;-42
2022/07/14 03:18:30;;;;;;;4.03;3.13;;;;;;;17.43;66.14;101176.09;5034217;28;20608;-42
2022/07/14 03:20:56;;;;;;;5.15;3.10;;;;;;;17.17;67.50;101185.66;5031675;28;20029;-42
2022/07/14 03:23:23;;;;;;;6.05;3.50;;;;;;;17.26;66.91;101181.47;5032508;28;20101;-42
2022/07/14 03:25:49;;;;;;;4.95;3.38;;;;;;;16.84;68.69;101183.66;5030537;28;20026;-45
2022/07/14 03:28:15;;;;;;;6.70;3.20;;;;;;;16.70;69.38;101182.22;5019280;28;20083;-41
2022/07/14 03:30:42;;;;;;;5.88;3.08;;;;;;;16.71;69.20;101186.59;5035574;28;20109;-41
2022/07/14 03:33:09;;;;;;;6.68;3.53;;;;;;;16.51;69.81;101173.47;5033087;28;20025;-41
2022/07/14 03:35:39;;;;;;;11.45;4.10;;;;;;;16.37;70.36;101173.69;5029783;28;20026;-42
2022/07/14 03:38:06;;;;;;;8.25;3.10;;;;;;;16.50;70.30;101183.44;5014691;28;20053;-41
2022/07/14 03:40:33;;;;;;;7.57;3.42;;;;;;;16.22;71.33;101177.94;5034215;28;20026;-41
2022/07/14 03:43:00;;;;;;;6.05;3.67;;;;;;;16.37;70.99;101179.09;5030636;28;20439;-41
2022/07/14 03:45:27;;;;;;;7.18;3.28;;;;;;;16.22;71.79;101189.56;5033766;28;20097;-42
2022/07/14 03:47:53;;;;;;;7.68;3.53;;;;;;;16.22;71.76;101188.75;5033752;28;20473;-42
2022/07/14 03:50:20;;;;;;;5.95;3.72;;;;;;;16.23;72.08;101195.78;5033671;28;20086;-42
2022/07/14 03:52:46;;;;;;;4.88;3.45;;;;;;;16.08;72.67;101198.94;5033213;28;20367;-44
2022/07/14 03:55:13;;;;;;;8.30;4.30;;;;;;;16.19;72.36;101191.91;5025088;28;20063;-42
2022/07/14 03:57:39;;;;;;;6.07;3.53;;;;;;;16.24;72.02;101197.44;5025454;28;20029;-41
2022/07/14 04:00:06;;;;;;;7.35;3.42;;;;;;;16.17;72.44;101189.44;5014352;28;20034;-41
2022/07/14 04:02:32;;;;;;;4.82;3.25;;;;;;;16.17;72.28;101197.56;5033264;28;20034;-41
2022/07/14 04:04:58;;;;;;;6.85;3.63;;;;;;;15.95;73.08;101202.69;5029281;28;20021;-48
2022/07/14 04:07:25;;;;;;;5.43;2.83;;;;;;;16.01;72.93;101209.03;5033349;28;20098;-43
2022/07/14 04:09:51;;;;;;;4.63;3.13;;;;;;;16.05;72.45;101210.22;5032902;28;20503;-41
2022/07/14 04:12:17;;;;;;;8.80;3.55;;;;;;;16.05;72.49;101208.34;5033288;28;20029;-42
2022/07/14 04:14:43;;;;;;;4.05;2.53;;;;;;;16.06;72.20;101215.38;5032811;28;20076;-44
2022/07/14 04:17:10;;;;;;;6.88;3.22;;;;;;;16.07;72.40;101218.91;5033237;28;20029;-43
2022/07/14 04:19:36;;;;;;;2.95;2.42;;;;;;;16.02;72.48;101210.69;5039559;28;20143;-42
2022/07/14 04:22:02;;;;;;;3.97;2.17;;;;;;;15.99;72.66;101214.69;5036011;28;20044;-43
2022/07/14 04:24:28;;;;;;;5.82;2.53;;;;;;;15.99;72.65;101220.09;5032339;28;20025;-42
2022/07/14 04:26:55;;;;;;;4.80;2.22;;;;;;;15.86;72.73;101212.19;5031379;28;20034;-42
2022/07/14 04:29:21;;;;;;;3.65;1.77;;;;;;;15.86;72.84;101224.84;5031872;28;20124;-41
2022/07/14 04:31:47;;;;;;;5.80;2.60;;;;;;;15.94;72.81;101225.34;5032141;28;20052;-43
2022/07/14 04:34:13;;;;;;;3.70;2.35;;;;;;;15.82;72.90;101228.03;5031736;28;20374;-43
2022/07/14 04:36:39;;;;;;;6.18;2.60;;;;;;;15.81;72.81;101233.63;5030140;28;20064;-44
2022/07/14 04:39:06;;;;;;;6.10;3.00;;;;;;;15.77;72.88;101230.59;5031090;28;20360;-42
2022/07/14 04:41:38;;;;;;;6.28;3.00;;;;;;;15.90;72.49;101234.13;5030897;28;20482;-42
2022/07/14 04:44:04;;;;;;;8.48;3.17;;;;;;;15.89;72.23;101232.50;5032692;28;20025;-45
2022/07/14 04:46:31;;;;;;;8.63;3.65;;;;;;;15.90;72.28;101231.44;5032608;28;20029;-41
2022/07/14 04:54:26;;;;;;;14.15;4.63;;;;;;;15.58;72.91;101237.06;5030461;28;20095;-42
2022/07/14 04:56:52;;;;;;;16.38;5.03;;;;;;;15.57;72.52;101227.31;5030360;28;20025;-41
2022/07/14 04:59:19;;;;;;;14.13;5.18;;;;;;;15.38;73.25;101233.81;5032332;28;20026;-41
2022/07/14 05:01:46;;;;;;;13.98;5.45;;;;;;;15.48;72.63;101231.38;5030623;28;20026;-42
2022/07/14 05:04:12;;;;;;;25.77;6.30;;;;;;;15.41;72.18;101228.78;5032013;28;20040;-41
2022/07/14 05:06:38;;;;;;;19.73;5.22;;;;;;;15.29;72.60;101228.75;5029822;28;20046;-41
2022/07/14 05:09:04;;;;;;;16.30;4.72;;;;;;;15.37;72.48;101241.06;5029758;28;20040;-42
2022/07/14 05:11:30;;;;;;;23.58;5.65;;;;;;;15.30;72.88;101243.88;5029781;28;20029;-42
2022/07/14 05:13:57;;;;;;;25.92;5.97;;;;;;;15.33;72.69;101239.91;5031079;28;20021;-42
2022/07/14 05:16:23;;;;;;;23.17;6.25;;;;;;;15.28;72.75;101250.56;5029350;28;20033;-42
2022/07/14 05:18:49;;;;;;;23.38;5.63;;;;;;;15.14;73.29;101247.19;5028162;28;20102;-46
2022/07/14 05:21:15;;;;;;;28.90;6.63;;;;;;;14.99;73.83;101261.06;5030193;28;20025;-44
2022/07/14 05:23:42;;;;;;;26.45;6.25;;;;;;;15.04;73.94;101253.09;5028005;28;20443;-40
2022/07/14 05:26:13;;;;;;;22.83;6.28;;;;;;;14.90;74.27;101259.69;5031608;28;20061;-42
2022/07/14 05:28:39;;;;;;;23.75;5.97;;;;;;;14.93;74.68;101261.94;5028814;28;20564;-41
2022/07/14 05:31:07;;;;;;;28.52;6.63;;;;;;;14.83;74.73;101268.91;5029732;28;20075;-41
2022/07/14 05:33:34;;;;;;;25.92;5.85;;;;;;;14.92;74.13;101256.78;5030529;28;20424;-41
2022/07/14 05:36:00;;;;;;;23.83;5.60;;;;;;;14.93;74.13;101245.75;5028672;28;20037;-46
2022/07/14 05:38:27;;;;;;;20.35;5.60;;;;;;;14.84;74.32;101246.31;5029850;28;20094;-43
2022/07/14 05:40:53;;;;;;;27.02;6.28;;;;;;;14.75;74.36;101249.28;5029182;28;20026;-43
2022/07/14 05:43:19;;;;;;;26.73;6.65;;;;;;;14.72;74.49;101246.22;5030614;28;20112;-43
2022/07/14 05:45:49;;;;;;;18.42;6.45;;;;;;;14.61;75.05;101239.72;5031590;28;20108;-43
2022/07/14 05:48:15;;;;;;;27.27;5.38;;;;;;;14.59;75.14;101235.56;5029901;28;20120;-43
2022/07/14 05:50:41;;;;;;;27.23;6.25;;;;;;;14.60;74.89;101229.13;5024492;28;20372;-42
2022/07/14 05:53:07;;;;;;;19.35;5.80;;;;;;;14.63;74.46;101231.38;5022797;28;20030;-43
2022/07/14 05:55:34;;;;;;;19.35;5.35;;;;;;;14.61;74.38;101231.63;5028178;28;20025;-42
2022/07/14 05:58:00;;;;;;;26.05;6.25;;;;;;;14.61;74.42;101237.00;5029294;28;20034;-41
2022/07/14 06:00:26;;;;;;;19.02;5.55;;;;;;;14.57;74.57;101222.34;5029345;28;20060;-41
2022/07/14 06:02:53;;;;;;;20.17;5.50;;;;;;;14.53;74.60;101224.63;5029241;28;20144;-45
2022/07/14 06:05:19;;;;;;;19.45;5.60;;;;;;;14.51;74.88;101226.75;5029926;28;20470;-42
2022/07/14 06:07:45;;;;;;;21.95;6.07;;;;;;;14.44;74.88;101220.56;5029039;28;20124;-42
2022/07/14 06:10:12;;;;;;;27.33;6.65;;;;;;;14.46;75.02;101218.47;5029614;28;20490;-41
2022/07/14 06:12:39;;;;;;;26.52;6.18;;;;;;;14.57;74.71;101227.72;5029621;28;20071;-44
2022/07/14 06:15:07;;;;;;;20.15;5.88;;;;;;;14.61;74.46;101222.72;5031321;28;20032;-41
2022/07/14 06:17:34;;;;;;;25.58;7.05;;;;;;;14.63;74.55;101234.09;5029136;28;20447;-43
2022/07/14 06:20:06;;;;;;;19.17;5.80;;;;;;;14.54;74.54;101233.53;5029372;28;20033;-42
2022/07/14 06:22:37;;;;;;;22.33;5.80;;;;;;;14.53;74.57;101229.19;5031073;28;20458;-42
2022/07/14 06:25:04;;;;;;;22.52;5.38;;;;;;;14.71;74.15;101218.47;5027958;28;20088;-40
2022/07/14 06:27:30;;;;;;;17.92;6.03;;;;;;;14.70;74.06;101216.78;5029470;28;20029;-41
2022/07/14 06:29:56;;;;;;;27.25;7.60;;;;;;;14.72;73.89;101201.25;5029545;28;20030;-43
2022/07/14 06:32:26;;;;;;;19.55;5.40;;;;;;;14.66;74.16;101212.09;5027239;28;20028;-43
2022/07/14 06:34:52;;;;;;;20.63;5.32;;;;;;;14.53;74.48;101203.09;5029303;28;20258;-46
2022/07/14 06:37:18;;;;;;;22.02;6.18;;;;;;;14.65;74.37;101199.66;5031806;28;20049;-41
2022/07/14 06:39:44;;;;;;;20.52;6.18;;;;;;;14.61;74.47;101203.88;5033000;28;20424;-43
2022/07/14 06:42:11;;;;;;;26.73;6.32;;;;;;;14.55;74.65;101204.72;5032955;28;20037;-42
2022/07/14 06:44:37;;;;;;;22.48;6.32;;;;;;;14.50;74.80;101206.25;5033193;28;20072;-41
2022/07/14 06:47:03;;;;;;;25.08;6.30;;;;;;;14.51;74.89;101202.50;5030438;28;20041;-42
2022/07/14 06:49:30;;;;;;;19.73;5.63;;;;;;;14.43;75.21;101202.75;5032656;28;20030;-41
2022/07/14 06:51:56;;;;;;;23.95;5.57;;;;;;;14.34;75.27;101198.72;5022036;28;20025;-42
2022/07/14 06:54:22;;;;;;;18.80;6.40;;;;;;;14.40;75.16;101197.00;5032860;28;20040;-43
2022/07/14 06:56:48;;;;;;;24.55;6.50;;;;;;;14.38;75.28;101191.00;5029438;28;20025;-43
2022/07/14 06:59:14;;;;;;;31.42;6.35;;;;;;;14.36;75.55;101187.72;5034775;28;20026;-41
2022/07/14 07:01:41;;;;;;;30.52;7.43;;;;;;;14.44;75.35;101187.44;5032298;28;20371;-41
2022/07/14 07:04:07;;;;;;;25.38;6.47;;;;;;;14.47;75.47;101176.22;5032937;28;20502;-41
2022/07/14 07:06:45;;;;;;;28.17;7.05;;;;;;;14.36;75.42;101187.72;5032893;28;20053;-45
2022/07/14 07:09:17;;;;;;;24.42;6.63;;;;;;;14.38;75.50;101189.16;5033761;28;20034;-43
2022/07/14 07:11:49;;;;;;;23.90;6.00;;;;;;;14.39;75.59;101196.19;5032302;28;20579;-41
2022/07/14 07:14:16;;;;;;;24.38;6.75;;;;;;;14.25;76.25;101197.34;5033212;28;20037;-44
2022/07/14 07:16:44;;;;;;;26.70;6.30;;;;;;;14.30;75.98;101197.50;5031634;28;20036;-40
2022/07/14 07:19:11;;;;;;;23.83;7.03;;;;;;;14.38;75.73;101202.63;5034593;28;20032;-41
2022/07/14 07:21:37;;;;;;;27.23;6.93;;;;;;;14.32;76.04;101202.66;5031975;28;20189;-41
2022/07/14 07:24:03;;;;;;;25.77;6.32;;;;;;;14.38;75.69;101205.31;5030708;28;20033;-40
2022/07/14 07:26:34;;;;;;;23.48;7.03;;;;;;;14.36;75.84;101204.69;5031610;28;20620;-40
2022/07/14 07:29:00;;;;;;;27.80;6.13;;;;;;;14.52;75.29;101204.13;5032673;28;20056;-43
2022/07/14 07:31:26;;;;;;;23.52;6.57;;;;;;;14.38;75.63;101197.22;5030994;28;20036;-41
2022/07/14 07:33:53;;;;;;;24.15;6.78;;;;;;;14.42;75.56;101192.19;5032255;28;20492;-44
2022/07/14 07:36:20;;;;;;;30.25;6.63;;;;;;;14.48;75.31;101199.41;5031328;28;20568;-40
2022/07/14 07:38:46;;;;;;;27.23;7.13;;;;;;;14.38;75.61;101189.16;5032113;28;20021;-41
2022/07/14 07:41:12;;;;;;;29.58;6.13;;;;;;;14.48;75.30;101194.84;5030442;28;20080;-40
2022/07/14 07:43:39;;;;;;;26.25;7.30;;;;;;;14.43;75.56;101194.66;5032782;28;20121;-41
2022/07/14 07:46:05;;;;;;;26.02;5.95;;;;;;;14.43;75.71;101201.91;5031402;28;20028;-44
2022/07/14 07:48:33;;;;;;;20.98;5.68;;;;;;;14.33;75.92;101207.84;5030632;28;20385;-41
2022/07/14 07:50:59;;;;;;;25.13;6.43;;;;;;;14.48;75.65;101191.34;5026290;28;20032;-41
2022/07/14 07:53:26;;;;;;;19.55;7.50;;;;;;;14.46;75.57;101194.22;5031566;28;20057;-41
2022/07/14 07:55:53;;;;;;;20.42;6.38;;;;;;;14.48;75.39;101196.72;5031894;28;20072;-41
2022/07/14 07:58:20;;;;;;;33.83;7.22;;;;;;;14.46;75.44;101190.72;5029891;28;20385;-41
2022/07/14 08:00:47;;;;;;;23.08;6.78;;;;;;;14.48;75.46;101188.66;5031669;28;20028;-41
2022/07/14 08:03:14;;;;;;;23.25;6.40;;;;;;;14.47;75.19;101189.69;5033017;28;20047;-41
2022/07/14 08:05:43;;;;;;;26.25;6.25;;;;;;;14.48;74.79;101183.25;5030370;28;20065;-41
2022/07/14 08:08:09;;;;;;;28.17;7.65;;;;;;;14.41;74.88;101175.22;5031254;28;20033;-41
2022/07/14 08:10:39;;;;;;;22.20;6.35;;;;;;;14.42;74.82;101184.94;5033454;28;20389;-41
2022/07/14 08:13:06;;;;;;;20.85;6.20;;;;;;;14.43;74.84;101186.59;5030905;28;20029;-42
2022/07/14 08:15:32;;;;;;;24.23;6.60;;;;;;;14.41;75.19;101185.16;5032913;28;20030;-41
2022/07/14 08:17:59;;;;;;;26.83;6.22;;;;;;;14.37;75.46;101175.88;5030891;28;20057;-42
2022/07/14 08:20:25;;;;;;;30.63;7.18;;;;;;;14.39;75.61;101184.59;5031611;28;20071;-41
2022/07/14 08:22:51;;;;;;;21.33;5.82;;;;;;;14.50;75.18;101184.69;5030737;28;20036;-41
2022/07/14 08:25:18;;;;;;;27.38;7.22;;;;;;;14.42;75.28;101176.84;5031380;28;20029;-41
2022/07/14 08:27:44;;;;;;;20.77;5.78;;;;;;;14.46;75.21;101177.25;5029690;28;20115;-40
2022/07/14 08:30:10;;;;;;;21.85;6.50;;;;;;;14.48;75.49;101178.69;5015023;28;20025;-42
2022/07/14 08:32:43;;;;;;;25.08;7.05;;;;;;;14.52;75.44;101192.53;5030302;28;20474;-40
2022/07/14 08:35:13;;;;;;;25.88;6.60;;;;;;;14.52;75.62;101185.28;5030666;28;20038;-41
2022/07/14 08:37:40;;;;;;;23.13;5.90;;;;;;;14.52;75.59;101179.91;5030655;28;20101;-41
2022/07/14 08:40:18;;;;;;;25.83;5.80;;;;;;;14.56;75.67;101191.06;5030206;28;20033;-43
2022/07/14 08:42:47;;;;;;;32.13;6.57;;;;;;;14.61;75.18;101183.13;5032173;28;20033;-41
2022/07/14 08:45:16;;;;;;;26.45;6.57;;;;;;;14.60;75.21;101180.63;5032435;28;20474;-44
2022/07/14 08:47:43;;;;;;;27.73;6.70;;;;;;;14.55;75.01;101180.47;5029815;28;20474;-42
2022/07/14 08:50:12;;;;;;;29.48;6.93;;;;;;;14.57;75.11;101183.81;5025671;28;20029;-42
2022/07/14 08:52:40;;;;;;;25.23;6.38;;;;;;;14.60;75.10;101186.03;5030077;28;20032;-41
2022/07/14 08:55:08;;;;;;;35.28;7.50;;;;;;;14.59;75.32;101189.78;5030517;28;20021;-42
2022/07/14 08:57:35;;;;;;;21.38;6.13;;;;;;;14.59;75.22;101187.91;5031247;28;20036;-42
2022/07/14 09:00:03;;;;;;;21.67;5.35;;;;;;;14.47;75.55;101182.44;5031717;28;20051;-41
2022/07/14 09:02:31;;;;;;;28.83;6.88;;;;;;;14.53;75.65;101186.94;5028352;28;20033;-42
2022/07/14 09:04:57;;;;;;;28.17;6.75;;;;;;;14.51;75.14;101189.03;5030764;28;20057;-41
2022/07/14 09:07:37;;;;;;;21.02;5.82;;;;;;;14.55;75.00;101189.41;5028032;28;20046;-42
2022/07/14 09:10:09;;;;;;;26.13;7.05;;;;;;;14.64;74.89;101185.34;5016037;28;20030;-41
2022/07/14 09:12:36;;;;;;;27.85;6.85;;;;;;;14.65;74.38;101183.50;5029773;28;20029;-42
2022/07/14 09:17:55;;;;;;;23.15;6.65;;;;;;;14.57;74.92;101191.88;5029830;28;20116;-42
2022/07/14 09:20:24;;;;;;;28.23;6.30;;;;;;;14.61;74.92;101198.47;5030445;28;20021;-41
2022/07/14 09:22:58;;;;;;;24.83;6.18;;;;;;;14.66;74.52;101198.63;5012533;28;20036;-41
2022/07/14 09:25:26;;;;;;;24.17;6.55;;;;;;;14.64;74.86;101189.94;5030541;28;20041;-41
2022/07/14 09:27:54;;;;;;;30.92;6.72;;;;;;;14.63;75.23;101191.81;5030653;28;20072;-42
2022/07/14 09:30:22;;;;;;;22.52;6.25;;;;;;;14.66;75.17;101190.53;5028625;28;20401;-42
2022/07/14 09:33:03;;;;;;;27.42;6.85;;;;;;;14.69;74.14;101193.59;5012155;28;20389;-44
2022/07/14 09:35:36;;;;;;;19.38;6.00;;;;;;;14.72;73.60;101189.66;5030129;28;20033;-41
2022/07/14 09:38:18;;;;;;;26.27;6.35;;;;;;;14.61;73.69;101193.09;5028171;28;20482;-41
2022/07/14 09:40:46;;;;;;;27.98;6.32;;;;;;;14.66;73.60;101191.38;5012231;28;20030;-41
2022/07/14 09:43:15;;;;;;;24.48;6.68;;;;;;;14.59;73.77;101195.16;5028101;28;20029;-41
2022/07/14 09:45:47;;;;;;;21.83;6.15;;;;;;;14.56;73.82;101191.06;5032152;28;20033;-42
2022/07/14 09:48:18;;;;;;;24.73;6.03;;;;;;;14.52;74.56;101192.53;5022146;28;20025;-42
2022/07/14 09:51:01;;;;;;;28.00;6.05;;;;;;;14.61;74.47;101201.16;5022401;28;20037;-41
2022/07/14 09:53:32;;;;;;;29.60;6.30;;;;;;;14.60;74.67;101196.81;5020573;28;20525;-42
2022/07/14 09:56:03;;;;;;;25.65;6.07;;;;;;;14.51;75.41;101193.59;5017274;28;20502;-41
2022/07/14 09:58:51;;;;;;;20.92;5.75;;;;;;;14.68;74.74;101189.25;5031492;28;20084;-42
2022/07/14 10:01:19;;;;;;;27.20;6.05;;;;;;;14.53;74.72;101178.84;5023871;28;20029;-41
2022/07/14 10:03:52;;;;;;;22.38;6.25;;;;;;;14.55;75.30;101194.81;5029415;28;20030;-42
2022/07/14 10:06:20;;;;;;;24.42;6.22;;;;;;;14.49;75.55;101198.38;5030269;28;20416;-45
2022/07/14 10:08:53;;;;;;;28.00;5.93;;;;;;;14.51;75.51;101196.28;5030298;28;20029;-42
2022/07/14 10:11:19;;;;;;;30.90;7.78;;;;;;;14.63;75.23;101196.38;5030241;28;20029;-41
2022/07/14 10:13:46;;;;;;;29.55;7.30;;;;;;;14.55;75.41;101197.50;5034483;28;20091;-41
2022/07/14 10:16:14;;;;;;;25.08;6.03;;;;;;;14.58;75.44;101201.59;5033585;28;20068;-42
2022/07/14 10:18:45;;;;;;;28.45;6.28;;;;;;;14.49;75.56;101191.13;5032015;28;20034;-42
2022/07/14 10:21:11;;;;;;;27.23;6.50;;;;;;;14.43;75.81;101197.34;5034196;28;20116;-41
2022/07/14 10:23:38;;;;;;;20.88;6.82;;;;;;;14.52;75.53;101192.53;5032274;28;20104;-42
2022/07/14 10:26:10;;;;;;;25.58;6.13;;;;;;;14.49;75.73;101198.38;5033052;28;20029;-42
2022/07/14 10:28:39;;;;;;;23.95;5.93;;;;;;;14.47;75.76;101200.47;5034130;28;20034;-43
2022/07/14 10:31:37;;;;;;;22.70;6.47;;;;;;;14.48;75.68;101200.22;5032744;28;20034;-41
2022/07/14 10:34:14;;;;;;;24.52;6.07;;;;;;;14.56;75.11;101198.31;5032902;28;20040;-42
2022/07/14 10:36:50;;;;;;;29.88;6.88;;;;;;;14.58;75.03;101204.28;5033998;28;20511;-42
2022/07/14 10:39:32;;;;;;;26.52;6.47;;;;;;;14.52;75.28;101200.63;5034467;28;20033;-43
2022/07/14 10:42:32;;;;;;;26.83;6.15;;;;;;;14.55;75.09;101196.66;5032717;28;20029;-42
2022/07/14 10:45:02;;;;;;;24.50;6.47;;;;;;;14.61;74.91;101203.88;5031247;28;20120;-43
2022/07/14 10:47:49;;;;;;;22.27;5.78;;;;;;;14.48;75.48;101200.22;5031318;28;20029;-42
2022/07/14 10:50:34;;;;;;;21.02;6.30;;;;;;;14.46;75.57;101196.91;5002388;28;20033;-42
2022/07/14 10:53:06;;;;;;;24.40;6.03;;;;;;;14.58;75.41;101197.03;5033568;28;20036;-41
2022/07/14 10:55:35;;;;;;;25.90;6.40;;;;;;;14.52;75.60;101195.25;5014298;28;20378;-43
2022/07/14 10:58:05;;;;;;;27.13;5.93;;;;;;;14.52;75.83;101198.75;5032928;28;20040;-42
2022/07/14 11:00:43;;;;;;;21.50;6.43;;;;;;;14.60;75.49;101196.81;5031941;28;20033;-42
2022/07/14 11:03:49;;;;;;;26.42;6.13;;;;;;;14.53;75.77;101200.41;5033291;28;20111;-43
2022/07/14 11:06:19;;;;;;;25.50;6.50;;;;;;;14.42;76.17;101201.09;4953053;29;20043;-42
2022/07/14 11:09:22;;;;;;;24.10;6.38;;;;;;;14.50;76.10;101194.66;4953309;29;20423;-41
2022/07/14 11:12:12;;;;;;;29.80;6.63;;;;;;;14.63;75.66;101196.38;5013731;28;20107;-41
2022/07/14 11:14:44;;;;;;;30.83;6.70;;;;;;;14.56;76.06;101195.63;5020292;28;20037;-41
2022/07/14 11:17:42;;;;;;;23.33;6.25;;;;;;;14.50;76.45;101198.16;5033381;28;20034;-41
2022/07/14 11:20:11;;;;;;;33.85;6.90;;;;;;;14.56;76.35;101201.84;4980024;28;20042;-42
2022/07/14 11:22:38;;;;;;;29.73;6.63;;;;;;;14.49;76.36;101201.91;5032093;28;20038;-42
2022/07/14 11:25:05;;;;;;;35.70;7.95;;;;;;;14.51;76.30;101199.81;5033068;28;20112;-41
2022/07/14 11:27:40;;;;;;;32.25;6.88;;;;;;;14.63;76.10;101207.97;5033059;28;20034;-42
2022/07/14 11:30:23;;;;;;;32.72;6.10;;;;;;;14.65;75.91;101200.47;5032415;28;20041;-42
2022/07/14 11:33:11;;;;;;;35.65;7.03;;;;;;;14.69;75.57;101211.63;5025210;28;20394;-41
2022/07/14 11:38:28;;;;;;;20.58;6.13;;;;;;;14.69;75.84;101201.69;5032831;28;20087;-41
2022/07/14 11:40:54;;;;;;;32.50;6.82;;;;;;;14.67;76.12;101202.97;5032488;28;20386;-42